Ariadna — ZGBE5 — position and weather

sailwx.info

Track history (hours):
 
Tides and Currents Weather Stations Pressure Air Temp Water Temp Dewpoint Dewpoint Depression Visibility Wind Speed Wind Dir Waves Ship Positions

Ariadna

Last reported at 2016-Aug-28 20:23 UTC. Time now 2016-Aug-29 00:09 UTC.
Position N 43°43' E 007°25'.

Length 47 m; draft 3.1 m.

Type: Pleasure craft. MMSI: 319026100.

Date/timePositionNaut miles runAvg speedWind from/ knotsBaromVisibWave heightAir tempDewpointWater temp
2016-Aug-28 20:23N 43°43' E 007°25'0 0.0
2016-Aug-28 19:29N 43°43' E 007°25'0 0.0
2016-Aug-28 18:31N 43°43' E 007°25'0 0.0
2016-Aug-28 16:31N 43°43' E 007°25'0 0.0
2016-Aug-28 10:22N 43°43' E 007°25'0 0.1
2016-Aug-28 08:11N 43°43' E 007°25'6 9.8
2016-Aug-28 07:33N 43°39' E 007°18'5 5.5
2016-Aug-28 06:33N 43°39' E 007°11'0 0.0
2016-Aug-28 05:32N 43°39' E 007°11'7 6.8
2016-Aug-28 04:33N 43°42' E 007°19'0 0.0
2016-Aug-28 03:31N 43°42' E 007°19'0 0.0
2016-Aug-28 02:27N 43°42' E 007°19'0 0.0
2016-Aug-28 01:33N 43°42' E 007°19'0 0.0
2016-Aug-28 00:32N 43°42' E 007°19'0 0.0
2016-Aug-27 23:33N 43°42' E 007°19'0 0.0
2016-Aug-27 22:33N 43°42' E 007°19'0 0.0
2016-Aug-27 21:33N 43°42' E 007°19'0 0.0
2016-Aug-27 20:33N 43°42' E 007°19'0 0.1
2016-Aug-27 19:33N 43°42' E 007°19'10 9.8
2016-Aug-27 18:33N 43°34' E 007°12'7 6.3
2016-Aug-27 17:29N 43°31' E 007°03'0 0.0
2016-Aug-27 16:33N 43°31' E 007°03'0 0.0
2016-Aug-27 15:33N 43°31' E 007°03'0 0.0
2016-Aug-27 14:33N 43°31' E 007°03'0 0.0
2016-Aug-27 13:33N 43°31' E 007°03'0 0.0
2016-Aug-27 12:33N 43°31' E 007°03'0 0.0
2016-Aug-27 11:33N 43°31' E 007°03'0 0.0
2016-Aug-27 10:33N 43°31' E 007°03'1 1.3
2016-Aug-27 09:33N 43°31' E 007°05'2 1.7
2016-Aug-27 08:33N 43°32' E 007°03'0 0.0
2016-Aug-27 07:33N 43°32' E 007°03'0 0.0
2016-Aug-27 06:33N 43°32' E 007°03'0 0.0
2016-Aug-27 04:33N 43°32' E 007°03'0 0.0
2016-Aug-27 03:27N 43°32' E 007°03'0 0.0
2016-Aug-27 02:34N 43°32' E 007°03'0 0.0
2016-Aug-27 01:32N 43°32' E 007°03'0 0.0
2016-Aug-27 00:29N 43°32' E 007°03'0 0.0
2016-Aug-26 22:33N 43°32' E 007°03'0 0.0
2016-Aug-26 21:31N 43°32' E 007°03'0 0.0
2016-Aug-26 20:32N 43°32' E 007°03'0 0.0
2016-Aug-26 19:32N 43°32' E 007°03'0 0.0
2016-Aug-26 18:32N 43°32' E 007°03'0 0.1
2016-Aug-26 17:33N 43°32' E 007°03'4 3.9
2016-Aug-26 16:24N 43°34' E 007°09'0 0.0
2016-Aug-26 15:30N 43°34' E 007°09'6 5.6
2016-Aug-26 14:30N 43°39' E 007°11'0 0.0
2016-Aug-26 13:30N 43°39' E 007°11'0 0.0
2016-Aug-26 12:30N 43°39' E 007°11'0 0.0
2016-Aug-26 11:18N 43°39' E 007°11'0 0.0
2016-Aug-26 10:24N 43°39' E 007°11'6 6.4
2016-Aug-26 09:32N 43°39' E 007°18'6 1.0
2016-Aug-26 03:06N 43°43' E 007°25'0 0.0
2016-Aug-26 02:06N 43°43' E 007°25'0 0.0
2016-Aug-26 01:30N 43°43' E 007°25'0 0.0
2016-Aug-26 00:30N 43°43' E 007°25'0 0.0
2016-Aug-25 23:12N 43°43' E 007°25'0 0.0
2016-Aug-25 19:30N 43°43' E 007°25'0 0.0
2016-Aug-25 18:06N 43°43' E 007°25'0 0.0
2016-Aug-25 00:30N 43°43' E 007°25'0 0.0
2016-Aug-24 23:06N 43°43' E 007°25'0 0.0
2016-Aug-24 22:24N 43°43' E 007°25'0 0.0
2016-Aug-24 20:24N 43°43' E 007°25'0 0.0
2016-Aug-24 19:30N 43°43' E 007°25'0 0.0
2016-Aug-24 18:30N 43°43' E 007°25'0 0.0
2016-Aug-24 17:30N 43°43' E 007°25'0 0.0
2016-Aug-24 16:06N 43°43' E 007°25'0 0.0
2016-Aug-24 15:30N 43°43' E 007°25'0 0.0
2016-Aug-23 19:12N 43°43' E 007°25'  
2016-Aug-20 07:21N 43°43' E 007°25'0 0.0
2016-Aug-20 04:21N 43°43' E 007°25'  
Track history (hours):
 
Tides and Currents Weather Stations Pressure Air Temp Water Temp Dewpoint Dewpoint Depression Visibility Wind Speed Wind Dir Waves Ship Positions

Ariadna

Last reported at 2016-Aug-28 20:23 UTC. Time now 2016-Aug-29 00:09 UTC.
Position N 43°43' E 007°25'.

Length 47 m; draft 3.1 m.

Type: Pleasure craft. MMSI: 319026100.

Date/timePositionNaut miles runAvg speedWind from/ knotsBaromVisibWave heightAir tempDewpointWater temp
2016-Aug-28 20:23N 43°43' E 007°25'0 0.0
2016-Aug-28 19:29N 43°43' E 007°25'0 0.0
2016-Aug-28 18:31N 43°43' E 007°25'0 0.0
2016-Aug-28 16:31N 43°43' E 007°25'0 0.0
2016-Aug-28 10:22N 43°43' E 007°25'0 0.1
2016-Aug-28 08:11N 43°43' E 007°25'6 9.8
2016-Aug-28 07:33N 43°39' E 007°18'5 5.5
2016-Aug-28 06:33N 43°39' E 007°11'0 0.0
2016-Aug-28 05:32N 43°39' E 007°11'7 6.8
2016-Aug-28 04:33N 43°42' E 007°19'0 0.0
2016-Aug-28 03:31N 43°42' E 007°19'0 0.0
2016-Aug-28 02:27N 43°42' E 007°19'0 0.0
2016-Aug-28 01:33N 43°42' E 007°19'0 0.0
2016-Aug-28 00:32N 43°42' E 007°19'0 0.0
2016-Aug-27 23:33N 43°42' E 007°19'0 0.0
2016-Aug-27 22:33N 43°42' E 007°19'0 0.0
2016-Aug-27 21:33N 43°42' E 007°19'0 0.0
2016-Aug-27 20:33N 43°42' E 007°19'0 0.1
2016-Aug-27 19:33N 43°42' E 007°19'10 9.8
2016-Aug-27 18:33N 43°34' E 007°12'7 6.3
2016-Aug-27 17:29N 43°31' E 007°03'0 0.0
2016-Aug-27 16:33N 43°31' E 007°03'0 0.0
2016-Aug-27 15:33N 43°31' E 007°03'0 0.0
2016-Aug-27 14:33N 43°31' E 007°03'0 0.0
2016-Aug-27 13:33N 43°31' E 007°03'0 0.0
2016-Aug-27 12:33N 43°31' E 007°03'0 0.0
2016-Aug-27 11:33N 43°31' E 007°03'0 0.0
2016-Aug-27 10:33N 43°31' E 007°03'1 1.3
2016-Aug-27 09:33N 43°31' E 007°05'2 1.7
2016-Aug-27 08:33N 43°32' E 007°03'0 0.0
2016-Aug-27 07:33N 43°32' E 007°03'0 0.0
2016-Aug-27 06:33N 43°32' E 007°03'0 0.0
2016-Aug-27 04:33N 43°32' E 007°03'0 0.0
2016-Aug-27 03:27N 43°32' E 007°03'0 0.0
2016-Aug-27 02:34N 43°32' E 007°03'0 0.0
2016-Aug-27 01:32N 43°32' E 007°03'0 0.0
2016-Aug-27 00:29N 43°32' E 007°03'0 0.0
2016-Aug-26 22:33N 43°32' E 007°03'0 0.0
2016-Aug-26 21:31N 43°32' E 007°03'0 0.0
2016-Aug-26 20:32N 43°32' E 007°03'0 0.0
2016-Aug-26 19:32N 43°32' E 007°03'0 0.0
2016-Aug-26 18:32N 43°32' E 007°03'0 0.1
2016-Aug-26 17:33N 43°32' E 007°03'4 3.9
2016-Aug-26 16:24N 43°34' E 007°09'0 0.0
2016-Aug-26 15:30N 43°34' E 007°09'6 5.6
2016-Aug-26 14:30N 43°39' E 007°11'0 0.0
2016-Aug-26 13:30N 43°39' E 007°11'0 0.0
2016-Aug-26 12:30N 43°39' E 007°11'0 0.0
2016-Aug-26 11:18N 43°39' E 007°11'0 0.0
2016-Aug-26 10:24N 43°39' E 007°11'6 6.4
2016-Aug-26 09:32N 43°39' E 007°18'6 1.0
2016-Aug-26 03:06N 43°43' E 007°25'0 0.0
2016-Aug-26 02:06N 43°43' E 007°25'0 0.0
2016-Aug-26 01:30N 43°43' E 007°25'0 0.0
2016-Aug-26 00:30N 43°43' E 007°25'0 0.0
2016-Aug-25 23:12N 43°43' E 007°25'0 0.0
2016-Aug-25 19:30N 43°43' E 007°25'0 0.0
2016-Aug-25 18:06N 43°43' E 007°25'0 0.0
2016-Aug-25 00:30N 43°43' E 007°25'0 0.0
2016-Aug-24 23:06N 43°43' E 007°25'0 0.0
2016-Aug-24 22:24N 43°43' E 007°25'0 0.0
2016-Aug-24 20:24N 43°43' E 007°25'0 0.0
2016-Aug-24 19:30N 43°43' E 007°25'0 0.0
2016-Aug-24 18:30N 43°43' E 007°25'0 0.0
2016-Aug-24 17:30N 43°43' E 007°25'0 0.0
2016-Aug-24 16:06N 43°43' E 007°25'0 0.0
2016-Aug-24 15:30N 43°43' E 007°25'0 0.0
2016-Aug-23 19:12N 43°43' E 007°25'  
2016-Aug-20 07:21N 43°43' E 007°25'0 0.0
2016-Aug-20 04:21N 43°43' E 007°25'  

Dump ship's entire track history